createdAt,value
2022-09-09T00:02:05.509Z,15.10
2022-09-09T00:04:38.873Z,15.12
2022-09-09T00:07:31.329Z,15.12
2022-09-09T00:10:19.898Z,15.10
2022-09-09T00:13:11.718Z,15.05
2022-09-09T00:15:50.877Z,15.03
2022-09-09T00:18:24.304Z,15.04
2022-09-09T00:21:09.965Z,15.02
2022-09-09T00:23:42.980Z,14.98
2022-09-09T00:26:22.320Z,14.99
2022-09-09T00:28:58.809Z,15.01
2022-09-09T00:31:32.241Z,14.98
2022-09-09T00:34:08.288Z,15.02
2022-09-09T00:36:40.598Z,14.98
2022-09-09T00:39:17.066Z,14.93
2022-09-09T00:42:02.221Z,14.88
2022-09-09T00:44:38.219Z,14.87
2022-09-09T00:47:37.612Z,14.91
2022-09-09T00:50:14.377Z,14.90
2022-09-09T00:53:02.938Z,14.90
2022-09-09T00:55:42.347Z,14.88
2022-09-09T00:58:13.923Z,14.86
2022-09-09T01:00:50.314Z,14.86
2022-09-09T01:03:32.741Z,14.82
2022-09-09T01:06:34.784Z,14.82
2022-09-09T01:09:14.453Z,14.87
2022-09-09T01:12:02.843Z,14.80
2022-09-09T01:14:48.443Z,14.78
2022-09-09T01:17:36.568Z,14.84
2022-09-09T01:20:37.051Z,14.86
2022-09-09T01:23:26.699Z,14.80
2022-09-09T01:26:25.437Z,14.87
2022-09-09T01:28:56.622Z,14.82
2022-09-09T01:31:39.021Z,14.72
2022-09-09T01:34:16.921Z,14.76
2022-09-09T01:36:53.010Z,14.70
2022-09-09T01:39:24.447Z,14.76
2022-09-09T01:41:56.790Z,14.70
2022-09-09T01:44:28.830Z,14.70
2022-09-09T01:46:59.318Z,14.68
2022-09-09T01:49:29.923Z,14.69
2022-09-09T01:52:00.767Z,14.65
2022-09-09T01:54:34.155Z,14.60
2022-09-09T01:57:19.536Z,14.61
2022-09-09T02:00:02.064Z,14.54
2022-09-09T02:02:55.467Z,14.55
2022-09-09T02:05:41.036Z,14.53
2022-09-09T02:08:14.486Z,14.54
2022-09-09T02:10:47.954Z,14.55
2022-09-09T02:13:21.414Z,14.50
2022-09-09T02:16:20.641Z,14.50
2022-09-09T02:18:54.539Z,14.56
2022-09-09T02:21:26.381Z,14.49
2022-09-09T02:23:59.928Z,14.49
2022-09-09T02:26:31.212Z,14.54
2022-09-09T02:29:04.669Z,14.49
2022-09-09T02:31:37.028Z,14.47
2022-09-09T02:34:10.462Z,14.44
2022-09-09T02:36:44.582Z,14.38
2022-09-09T02:39:15.802Z,14.46
2022-09-09T02:41:46.106Z,14.34
2022-09-09T02:44:18.803Z,14.40
2022-09-09T02:47:04.106Z,14.32
2022-09-09T02:49:44.978Z,14.32
2022-09-09T02:52:23.397Z,14.28
2022-09-09T02:54:56.946Z,14.32
2022-09-09T02:57:30.201Z,14.36
2022-09-09T03:00:02.347Z,14.36
2022-09-09T03:02:32.840Z,14.47
2022-09-09T03:05:03.267Z,14.37
2022-09-09T03:07:35.946Z,14.34
2022-09-09T03:10:07.348Z,14.31
2022-09-09T03:12:37.848Z,14.24
2022-09-09T03:15:09.335Z,14.30
2022-09-09T03:17:39.968Z,14.25
2022-09-09T03:20:11.165Z,14.28
2022-09-09T03:22:41.631Z,14.21
2022-09-09T03:25:12.011Z,14.26
2022-09-09T03:27:42.385Z,14.25
2022-09-09T03:30:14.804Z,14.23
2022-09-09T03:32:48.887Z,14.18
2022-09-09T03:35:18.034Z,14.20
2022-09-09T03:37:48.806Z,14.17
2022-09-09T03:40:20.628Z,14.18
2022-09-09T03:42:51.037Z,14.16
2022-09-09T03:45:21.462Z,14.16
2022-09-09T03:47:51.869Z,14.28
2022-09-09T03:50:22.384Z,14.22
2022-09-09T03:52:52.759Z,14.30
2022-09-09T03:55:23.138Z,14.22
2022-09-09T03:57:53.632Z,14.17
2022-09-09T04:00:24.079Z,14.21
2022-09-09T04:02:56.222Z,14.18
2022-09-09T04:05:26.767Z,14.24
2022-09-09T04:07:57.092Z,14.11
2022-09-09T04:10:27.891Z,14.13
2022-09-09T04:12:58.384Z,14.10
2022-09-09T04:15:29.032Z,14.26
2022-09-09T04:17:59.544Z,14.24
2022-09-09T04:20:31.236Z,14.18
2022-09-09T04:23:01.759Z,14.29
2022-09-09T04:25:32.463Z,14.12
2022-09-09T04:28:03.797Z,14.27
2022-09-09T04:30:35.755Z,14.18
2022-09-09T04:33:06.141Z,14.11
2022-09-09T04:35:36.790Z,14.13
2022-09-09T04:38:10.478Z,14.19
2022-09-09T04:40:42.684Z,14.16
2022-09-09T04:43:14.597Z,14.16
2022-09-09T04:45:46.035Z,14.12
2022-09-09T04:48:16.849Z,14.06
2022-09-09T04:50:58.831Z,14.22
2022-09-09T04:53:29.487Z,14.02
2022-09-09T04:56:08.242Z,14.10
2022-09-09T04:58:39.460Z,14.13
2022-09-09T05:01:11.666Z,14.28
2022-09-09T05:03:43.065Z,14.32
2022-09-09T05:06:16.736Z,14.34
2022-09-09T05:08:47.271Z,14.29
2022-09-09T05:11:26.675Z,14.22
2022-09-09T05:13:57.966Z,14.30
2022-09-09T05:16:28.511Z,14.34
2022-09-09T05:19:00.015Z,14.38
2022-09-09T05:21:31.641Z,14.34
2022-09-09T05:24:02.167Z,14.48
2022-09-09T05:26:34.192Z,14.42
2022-09-09T05:29:05.126Z,14.42
2022-09-09T05:31:35.566Z,14.39
2022-09-09T05:34:06.030Z,14.41
2022-09-09T05:36:36.824Z,14.45
2022-09-09T05:39:07.398Z,14.41
2022-09-09T05:41:37.869Z,14.45
2022-09-09T05:44:08.841Z,14.47
2022-09-09T05:46:39.308Z,14.45
2022-09-09T05:49:09.841Z,14.44
2022-09-09T05:51:41.305Z,14.52
2022-09-09T05:54:13.739Z,14.50
2022-09-09T05:56:47.755Z,14.55
2022-09-09T05:59:16.840Z,14.60
2022-09-09T06:01:47.935Z,14.65
2022-09-09T06:04:18.987Z,14.70
2022-09-09T06:06:49.697Z,14.86
2022-09-09T06:09:20.079Z,14.98
2022-09-09T06:11:50.484Z,15.03
2022-09-09T06:14:21.525Z,15.00
2022-09-09T06:16:51.872Z,15.01
2022-09-09T06:19:22.252Z,15.02
2022-09-09T06:21:52.559Z,15.02
2022-09-09T06:24:23.204Z,15.07
2022-09-09T06:26:54.995Z,15.10
2022-09-09T06:29:25.481Z,15.08
2022-09-09T06:31:55.967Z,15.15
2022-09-09T06:34:26.499Z,15.20
2022-09-09T06:36:58.891Z,15.20
2022-09-09T06:39:29.499Z,15.27
2022-09-09T06:42:01.589Z,15.27
2022-09-09T06:44:35.215Z,15.38
2022-09-09T06:47:05.082Z,15.39
2022-09-09T06:49:36.015Z,15.38
2022-09-09T06:52:06.463Z,15.50
2022-09-09T06:54:38.368Z,15.55
2022-09-09T06:57:27.103Z,15.65
2022-09-09T06:59:40.898Z,15.80
2022-09-09T07:02:11.359Z,15.93
2022-09-09T07:04:41.783Z,15.98
2022-09-09T07:07:13.915Z,16.04
2022-09-09T07:09:45.953Z,16.02
2022-09-09T07:12:16.363Z,16.16
2022-09-09T07:14:47.073Z,16.36
2022-09-09T07:17:17.446Z,16.47
2022-09-09T07:19:49.146Z,16.56
2022-09-09T07:22:21.110Z,16.66
2022-09-09T07:24:51.522Z,16.90
2022-09-09T07:27:22.239Z,16.94
2022-09-09T07:29:54.907Z,17.10
2022-09-09T07:32:26.512Z,17.26
2022-09-09T07:34:57.016Z,17.50
2022-09-09T07:37:27.402Z,17.66
2022-09-09T07:39:57.966Z,17.90
2022-09-09T07:42:29.063Z,18.00
2022-09-09T07:45:00.399Z,18.27
2022-09-09T07:47:30.807Z,18.27
2022-09-09T07:50:01.193Z,18.37
2022-09-09T07:52:31.683Z,18.51
2022-09-09T07:55:03.321Z,18.37
2022-09-09T07:57:33.923Z,18.33
2022-09-09T08:00:05.943Z,18.35
2022-09-09T08:02:36.325Z,18.37
2022-09-09T08:05:07.127Z,18.36
2022-09-09T08:07:37.554Z,18.38
2022-09-09T08:10:08.635Z,18.41
2022-09-09T08:12:40.280Z,18.37
2022-09-09T08:15:14.845Z,18.48
2022-09-09T08:17:45.615Z,18.50
2022-09-09T08:20:16.048Z,18.50
2022-09-09T08:22:46.367Z,18.62
2022-09-09T08:25:16.834Z,18.76
2022-09-09T08:27:47.249Z,18.66
2022-09-09T08:30:17.785Z,18.47
2022-09-09T08:32:50.777Z,18.49
2022-09-09T08:35:21.442Z,18.50
2022-09-09T08:37:54.837Z,18.58
2022-09-09T08:40:28.318Z,18.72
2022-09-09T08:43:00.938Z,18.80
2022-09-09T08:45:37.029Z,18.82
2022-09-09T08:48:19.103Z,18.95
2022-09-09T08:50:53.095Z,18.94
2022-09-09T08:53:26.716Z,18.97
2022-09-09T08:56:02.588Z,19.05
2022-09-09T08:58:35.820Z,19.10
2022-09-09T09:01:12.334Z,19.14
2022-09-09T09:04:09.796Z,19.14
2022-09-09T09:07:04.057Z,19.18
2022-09-09T09:09:54.438Z,19.24
2022-09-09T09:12:28.005Z,19.22
2022-09-09T09:15:00.503Z,19.34
2022-09-09T09:17:34.101Z,19.38
2022-09-09T09:20:07.274Z,19.59
2022-09-09T09:22:40.783Z,19.80
2022-09-09T09:25:23.459Z,19.88
2022-09-09T09:28:02.370Z,20.02
2022-09-09T09:30:36.013Z,20.22
2022-09-09T09:33:21.242Z,20.23
2022-09-09T09:35:54.555Z,20.34
2022-09-09T09:41:01.756Z,20.27
2022-09-09T09:43:37.388Z,20.23
2022-09-09T09:46:18.384Z,20.24
2022-09-09T09:48:42.830Z,20.24
2022-09-09T09:51:16.874Z,20.14
2022-09-09T09:53:47.876Z,20.00
2022-09-09T09:56:18.363Z,20.06
2022-09-09T09:58:52.053Z,20.20
2022-09-09T10:01:30.967Z,20.19
2022-09-09T10:04:20.453Z,20.04
2022-09-09T10:06:51.755Z,20.11
2022-09-09T10:09:33.855Z,20.21
2022-09-09T10:12:16.052Z,20.38
2022-09-09T10:15:07.364Z,20.47
2022-09-09T10:17:43.636Z,20.57
2022-09-09T10:20:36.711Z,20.78
2022-09-09T10:23:16.138Z,20.88
2022-09-09T10:25:49.587Z,20.99
2022-09-09T10:28:41.625Z,21.00
2022-09-09T10:31:27.751Z,20.94
2022-09-09T10:34:01.236Z,21.09
2022-09-09T10:36:31.610Z,21.16
2022-09-09T10:39:05.592Z,21.15
2022-09-09T10:41:39.910Z,21.16
2022-09-09T10:44:30.758Z,21.39
2022-09-09T10:47:08.048Z,21.35
2022-09-09T10:49:57.499Z,21.30
2022-09-09T10:52:45.855Z,21.43
2022-09-09T10:55:29.713Z,21.56
2022-09-09T10:58:01.674Z,21.71
2022-09-09T11:00:40.831Z,21.68
2022-09-09T11:03:17.071Z,21.59
2022-09-09T11:05:50.548Z,21.53
2022-09-09T11:08:27.364Z,21.52
2022-09-09T11:11:24.897Z,21.66
2022-09-09T11:14:01.151Z,21.58
2022-09-09T11:16:49.852Z,21.46
2022-09-09T11:19:26.058Z,21.62
2022-09-09T11:21:58.899Z,21.52
2022-09-09T11:24:35.484Z,21.88
2022-09-09T11:27:17.952Z,22.15
2022-09-09T11:30:07.562Z,23.08
2022-09-09T11:32:46.914Z,25.78
2022-09-09T11:35:56.243Z,28.91
2022-09-09T11:38:48.840Z,31.67
2022-09-09T11:41:22.106Z,31.40
2022-09-09T11:43:53.943Z,29.79
2022-09-09T11:46:36.246Z,29.84
2022-09-09T11:49:10.024Z,30.47
2022-09-09T11:51:41.075Z,30.30
2022-09-09T11:54:36.016Z,28.26
2022-09-09T11:57:06.849Z,30.76
2022-09-09T11:59:38.166Z,32.50
2022-09-09T12:02:15.521Z,34.33
2022-09-09T12:05:05.348Z,34.72
2022-09-09T12:07:39.308Z,34.59
2022-09-09T12:10:30.967Z,32.98
2022-09-09T12:13:23.788Z,31.62
2022-09-09T12:15:56.734Z,30.56
2022-09-09T12:18:35.675Z,28.19
2022-09-09T12:21:11.854Z,27.60
2022-09-09T12:23:47.792Z,26.86
2022-09-09T12:26:39.245Z,26.86
2022-09-09T12:29:30.596Z,25.90
2022-09-09T12:32:09.805Z,25.37
2022-09-09T12:35:03.875Z,24.82
2022-09-09T12:37:49.364Z,24.62
2022-09-09T12:40:28.976Z,24.09
2022-09-09T12:43:02.378Z,24.31
2022-09-09T12:45:36.969Z,24.12
2022-09-09T12:48:16.723Z,24.14
2022-09-09T12:50:52.477Z,24.17
2022-09-09T12:53:27.423Z,24.11
2022-09-09T12:56:11.622Z,23.92
2022-09-09T12:58:45.173Z,24.18
2022-09-09T13:01:29.644Z,24.17
2022-09-09T13:04:00.849Z,23.90
2022-09-09T13:06:33.499Z,23.54
2022-09-09T13:09:04.796Z,23.41
2022-09-09T13:11:44.207Z,23.36
2022-09-09T13:14:21.236Z,23.00
2022-09-09T13:17:00.323Z,22.91
2022-09-09T13:19:34.077Z,22.80
2022-09-09T13:22:28.527Z,22.75
2022-09-09T13:25:07.689Z,22.66
2022-09-09T13:27:43.573Z,22.61
2022-09-09T13:30:30.144Z,22.63
2022-09-09T13:33:18.699Z,22.59
2022-09-09T13:35:54.810Z,22.44
2022-09-09T13:38:27.615Z,22.46
2022-09-09T13:41:05.170Z,22.54
2022-09-09T13:43:48.166Z,22.42
2022-09-09T13:46:33.582Z,22.52
2022-09-09T13:49:12.688Z,22.71
2022-09-09T13:51:47.328Z,23.01
2022-09-09T13:54:20.103Z,23.32
2022-09-09T13:56:50.730Z,23.40
2022-09-09T13:59:22.399Z,23.32
2022-09-09T14:01:53.468Z,23.22
2022-09-09T14:04:23.910Z,23.12
2022-09-09T14:06:54.287Z,23.27
2022-09-09T14:09:24.669Z,23.47
2022-09-09T14:11:56.281Z,23.48
2022-09-09T14:14:26.660Z,23.57
2022-09-09T14:16:57.062Z,23.45
2022-09-09T14:19:27.513Z,23.75
2022-09-09T14:21:57.913Z,23.63
2022-09-09T14:24:28.837Z,23.33
2022-09-09T14:26:59.240Z,23.22
2022-09-09T14:29:29.706Z,23.13
2022-09-09T14:32:01.997Z,22.96
2022-09-09T14:34:34.169Z,22.88
2022-09-09T14:37:04.661Z,22.82
2022-09-09T14:39:35.295Z,22.86
2022-09-09T14:42:06.350Z,22.99
2022-09-09T14:44:36.742Z,22.89
2022-09-09T14:47:10.270Z,22.80
2022-09-09T14:49:42.629Z,22.70
2022-09-09T14:52:12.695Z,22.55
2022-09-09T14:54:43.062Z,22.56
2022-09-09T14:57:13.579Z,22.44
2022-09-09T14:59:43.988Z,22.52
2022-09-09T15:02:15.220Z,22.49
2022-09-09T15:04:46.887Z,22.41
2022-09-09T15:07:19.403Z,22.32
2022-09-09T15:09:49.721Z,22.32
2022-09-09T15:12:21.377Z,22.46
2022-09-09T15:14:53.225Z,22.44
2022-09-09T15:17:25.645Z,22.52
2022-09-09T15:19:56.020Z,22.75
2022-09-09T15:22:26.739Z,22.70
2022-09-09T15:24:58.636Z,22.60
2022-09-09T15:27:30.000Z,22.38
2022-09-09T15:30:01.740Z,22.19
2022-09-09T15:32:34.226Z,21.98
2022-09-09T15:35:04.830Z,21.85
2022-09-09T15:37:35.232Z,21.66
2022-09-09T15:40:06.026Z,21.68
2022-09-09T15:42:36.405Z,21.60
2022-09-09T15:45:07.747Z,21.52
2022-09-09T15:47:38.147Z,21.42
2022-09-09T15:50:08.990Z,21.41
2022-09-09T15:52:39.637Z,21.22
2022-09-09T15:55:10.506Z,21.14
2022-09-09T15:57:41.602Z,21.01
2022-09-09T16:00:14.018Z,20.95
2022-09-09T16:02:44.480Z,20.90
2022-09-09T16:05:15.005Z,20.79
2022-09-09T16:07:45.985Z,20.78
2022-09-09T16:10:16.820Z,20.75
2022-09-09T16:12:47.708Z,20.84
2022-09-09T16:15:18.574Z,20.90
2022-09-09T16:17:49.027Z,20.90
2022-09-09T16:20:19.890Z,20.94
2022-09-09T16:22:50.293Z,20.97
2022-09-09T16:25:21.477Z,21.02
2022-09-09T16:27:51.904Z,20.98
2022-09-09T16:30:22.800Z,21.02
2022-09-09T16:32:54.501Z,20.99
2022-09-09T16:35:24.824Z,20.98
2022-09-09T16:37:55.187Z,20.92
2022-09-09T16:40:25.551Z,20.88
2022-09-09T16:42:56.042Z,20.88
2022-09-09T16:45:26.428Z,20.88
2022-09-09T16:47:57.273Z,20.89
2022-09-09T16:50:28.155Z,20.76
2022-09-09T16:52:58.619Z,20.72
2022-09-09T16:55:30.933Z,20.67
2022-09-09T16:58:01.537Z,20.56
2022-09-09T17:00:31.908Z,20.47
2022-09-09T17:03:03.414Z,20.41
2022-09-09T17:05:33.759Z,20.34
2022-09-09T17:08:05.724Z,20.30
2022-09-09T17:10:36.459Z,20.18
2022-09-09T17:13:06.869Z,20.10
2022-09-09T17:15:44.962Z,19.97
2022-09-09T17:18:15.323Z,19.89
2022-09-09T17:20:47.477Z,19.74
2022-09-09T17:23:18.110Z,19.68
2022-09-09T17:25:51.868Z,19.73
2022-09-09T17:28:23.901Z,19.74
2022-09-09T17:30:55.089Z,19.78
2022-09-09T17:33:27.103Z,19.76
2022-09-09T17:35:58.225Z,19.66
2022-09-09T17:38:30.712Z,19.56
2022-09-09T17:41:07.019Z,19.52
2022-09-09T17:43:38.690Z,19.46
2022-09-09T17:46:11.813Z,19.42
2022-09-09T17:48:44.515Z,19.35
2022-09-09T17:51:19.259Z,19.38
2022-09-09T17:53:51.276Z,19.30
2022-09-09T17:56:23.564Z,19.28
2022-09-09T17:58:54.629Z,19.25
2022-09-09T18:01:31.332Z,19.14
2022-09-09T18:04:04.595Z,19.10
2022-09-09T18:06:38.394Z,19.15
2022-09-09T18:09:13.104Z,18.99
2022-09-09T18:11:46.079Z,19.02
2022-09-09T18:14:20.291Z,18.92
2022-09-09T18:16:51.864Z,18.89
2022-09-09T18:19:24.982Z,18.92
2022-09-09T18:21:57.582Z,18.94
2022-09-09T18:24:28.190Z,18.97
2022-09-09T18:26:58.651Z,18.85
2022-09-09T18:29:29.722Z,18.92
2022-09-09T18:32:00.132Z,18.79
2022-09-09T18:34:30.725Z,18.70
2022-09-09T18:37:01.091Z,18.64
2022-09-09T18:39:31.974Z,18.56
2022-09-09T18:42:03.004Z,18.57
2022-09-09T18:44:35.748Z,18.52
2022-09-09T18:47:08.015Z,18.56
2022-09-09T18:49:38.418Z,18.60
2022-09-09T18:52:12.810Z,18.57
2022-09-09T18:54:42.530Z,18.74
2022-09-09T18:57:13.509Z,18.58
2022-09-09T18:59:43.901Z,18.47
2022-09-09T19:02:14.914Z,18.48
2022-09-09T19:04:45.297Z,18.38
2022-09-09T19:07:15.706Z,18.38
2022-09-09T19:09:46.535Z,18.34
2022-09-09T19:12:17.306Z,18.31
2022-09-09T19:14:47.864Z,18.28
2022-09-09T19:17:18.260Z,18.32
2022-09-09T19:19:51.411Z,18.16
2022-09-09T19:22:23.223Z,18.10
2022-09-09T19:24:53.597Z,17.98
2022-09-09T19:27:24.093Z,18.05
2022-09-09T19:30:05.180Z,17.89
2022-09-09T19:32:52.608Z,17.87
2022-09-09T19:35:11.119Z,17.88
2022-09-09T19:37:42.195Z,17.80
2022-09-09T19:40:12.861Z,17.78
2022-09-09T19:42:43.978Z,17.72
2022-09-09T19:45:14.290Z,17.72
2022-09-09T19:47:44.677Z,17.71
2022-09-09T19:50:15.125Z,17.62
2022-09-09T19:52:45.547Z,17.52
2022-09-09T19:55:16.073Z,17.55
2022-09-09T19:57:46.395Z,17.58
2022-09-09T20:00:18.560Z,17.52
2022-09-09T20:03:15.212Z,17.49
2022-09-09T20:05:23.753Z,17.57
2022-09-09T20:07:54.134Z,17.56
2022-09-09T20:10:24.623Z,17.36
2022-09-09T20:12:55.189Z,17.34
2022-09-09T20:15:26.310Z,17.37
2022-09-09T20:17:58.144Z,17.33
2022-09-09T20:20:29.017Z,17.25
2022-09-09T20:22:59.403Z,17.25
2022-09-09T20:25:29.987Z,17.29
2022-09-09T20:28:00.366Z,17.24
2022-09-09T20:30:31.207Z,17.18
2022-09-09T20:33:01.605Z,17.18
2022-09-09T20:35:33.144Z,17.08
2022-09-09T20:38:03.638Z,16.97
2022-09-09T20:40:38.697Z,16.98
2022-09-09T20:43:10.700Z,16.90
2022-09-09T20:45:42.705Z,16.96
2022-09-09T20:48:13.039Z,16.87
2022-09-09T20:50:43.453Z,16.84
2022-09-09T20:53:14.020Z,16.79
2022-09-09T20:55:44.356Z,16.77
2022-09-09T20:58:14.685Z,16.70
2022-09-09T21:00:44.926Z,16.75
2022-09-09T21:03:15.683Z,16.62
2022-09-09T21:05:47.751Z,16.64
2022-09-09T21:08:18.480Z,16.67
2022-09-09T21:10:49.709Z,16.62
2022-09-09T21:13:20.973Z,16.69
2022-09-09T21:15:52.617Z,16.64
2022-09-09T21:18:27.363Z,16.63
2022-09-09T21:20:58.086Z,16.62
2022-09-09T21:23:29.184Z,16.56
2022-09-09T21:25:59.815Z,16.56
2022-09-09T21:28:31.353Z,16.46
2022-09-09T21:31:02.374Z,16.43
2022-09-09T21:33:34.459Z,16.35
2022-09-09T21:36:09.046Z,16.40
2022-09-09T21:38:42.605Z,16.47
2022-09-09T21:41:15.673Z,16.56
2022-09-09T21:43:47.288Z,16.47
2022-09-09T21:46:18.478Z,16.56
2022-09-09T21:48:48.999Z,16.54
2022-09-09T21:51:19.747Z,16.52
2022-09-09T21:53:50.456Z,16.47
2022-09-09T21:56:20.834Z,16.46
2022-09-09T21:58:56.840Z,16.42
2022-09-09T22:01:27.425Z,16.42
2022-09-09T22:03:57.859Z,16.43
2022-09-09T22:06:28.518Z,16.40
2022-09-09T22:08:59.354Z,16.34
2022-09-09T22:11:31.175Z,16.32
2022-09-09T22:14:02.544Z,16.29
2022-09-09T22:16:32.989Z,16.22
2022-09-09T22:19:03.591Z,16.26
2022-09-09T22:21:34.168Z,16.23
2022-09-09T22:24:06.673Z,16.25
2022-09-09T22:26:38.237Z,16.30
2022-09-09T22:29:09.013Z,16.13
2022-09-09T22:31:40.081Z,16.12
2022-09-09T22:34:10.515Z,16.12
2022-09-09T22:36:40.943Z,16.03
2022-09-09T22:39:11.317Z,15.97
2022-09-09T22:41:42.523Z,16.12
2022-09-09T22:44:13.073Z,16.05
2022-09-09T22:46:43.791Z,15.99
2022-09-09T22:49:14.640Z,16.00
2022-09-09T22:51:45.020Z,15.95
2022-09-09T22:54:15.402Z,15.92
2022-09-09T22:56:45.716Z,15.96
2022-09-09T22:59:16.080Z,15.87
2022-09-09T23:01:47.929Z,15.89
2022-09-09T23:04:19.920Z,15.75
2022-09-09T23:06:50.235Z,15.75
2022-09-09T23:09:20.758Z,15.88
2022-09-09T23:11:51.493Z,15.80
2022-09-09T23:14:22.038Z,15.81
2022-09-09T23:16:52.607Z,15.72
2022-09-09T23:19:23.868Z,15.72
2022-09-09T23:21:57.839Z,15.83
2022-09-09T23:24:29.085Z,15.77
2022-09-09T23:26:59.574Z,15.84
2022-09-09T23:29:30.027Z,15.77
2022-09-09T23:32:00.542Z,15.80
2022-09-09T23:34:31.796Z,15.82
2022-09-09T23:37:02.597Z,15.76
2022-09-09T23:39:32.957Z,15.60
2022-09-09T23:42:06.341Z,15.69
2022-09-09T23:44:38.161Z,15.54
2022-09-09T23:47:09.861Z,15.55
2022-09-09T23:49:40.176Z,15.55
2022-09-09T23:52:10.667Z,15.54
2022-09-09T23:54:41.050Z,15.52
2022-09-09T23:57:13.533Z,15.49
2022-09-09T23:59:43.881Z,15.56
